createdAt,value
2019-03-08T00:03:13.122Z,0.30
2019-03-08T00:05:41.361Z,0.30
2019-03-08T00:08:09.568Z,0.50
2019-03-08T00:10:37.773Z,0.53
2019-03-08T00:13:05.983Z,0.55
2019-03-08T00:15:34.341Z,0.30
2019-03-08T00:18:02.534Z,0.25
2019-03-08T00:20:30.697Z,0.40
2019-03-08T00:22:58.973Z,0.65
2019-03-08T00:25:27.173Z,0.78
2019-03-08T00:27:55.315Z,0.53
2019-03-08T00:30:23.571Z,0.40
2019-03-08T00:32:51.738Z,0.40
2019-03-08T00:35:19.897Z,0.53
2019-03-08T00:37:48.027Z,0.60
2019-03-08T00:40:16.387Z,0.40
2019-03-08T00:42:44.641Z,0.65
2019-03-08T00:45:12.897Z,0.20
2019-03-08T00:47:41.059Z,0.23
2019-03-08T00:50:09.452Z,0.37
2019-03-08T00:52:37.560Z,0.23
2019-03-08T00:55:06.266Z,0.50
2019-03-08T00:57:34.406Z,0.40
2019-03-08T01:00:02.621Z,0.50
2019-03-08T01:02:31.021Z,0.25
2019-03-08T01:04:59.141Z,0.47
2019-03-08T01:07:27.320Z,0.72
2019-03-08T01:09:55.512Z,0.60
2019-03-08T01:12:23.604Z,0.62
2019-03-08T01:14:51.917Z,0.40
2019-03-08T01:17:20.344Z,0.60
2019-03-08T01:19:48.944Z,0.65
2019-03-08T01:22:17.077Z,0.37
2019-03-08T01:24:45.167Z,0.30
2019-03-08T01:27:13.449Z,0.50
2019-03-08T01:29:41.921Z,0.93
2019-03-08T01:32:10.387Z,0.28
2019-03-08T01:34:38.487Z,0.88
2019-03-08T01:37:06.849Z,0.50
2019-03-08T01:39:35.101Z,0.50
2019-03-08T01:42:03.290Z,0.55
2019-03-08T01:44:31.495Z,0.55
2019-03-08T01:46:59.847Z,0.70
2019-03-08T01:49:28.013Z,0.20
2019-03-08T01:51:56.227Z,0.45
2019-03-08T01:54:24.319Z,0.50
2019-03-08T01:56:52.467Z,0.55
2019-03-08T01:59:20.615Z,0.70
2019-03-08T02:01:49.019Z,0.68
2019-03-08T02:04:17.624Z,0.47
2019-03-08T02:06:45.881Z,0.62
2019-03-08T02:09:18.303Z,0.55
2019-03-08T02:11:46.450Z,0.50
2019-03-08T02:14:14.684Z,0.60
2019-03-08T02:16:43.078Z,0.53
2019-03-08T02:19:11.264Z,0.40
2019-03-08T02:21:39.400Z,0.65
2019-03-08T02:24:07.710Z,0.40
2019-03-08T02:26:35.934Z,0.37
2019-03-08T02:29:04.042Z,0.50
2019-03-08T02:31:32.805Z,0.50
2019-03-08T02:34:03.877Z,0.40
2019-03-08T02:36:31.986Z,0.93
2019-03-08T02:39:01.456Z,0.50
2019-03-08T02:41:30.106Z,0.35
2019-03-08T02:43:58.238Z,0.25
2019-03-08T02:46:26.501Z,0.50
2019-03-08T02:48:54.653Z,0.78
2019-03-08T02:51:22.861Z,0.33
2019-03-08T02:53:51.140Z,0.90
2019-03-08T02:56:19.496Z,0.90
2019-03-08T02:58:47.629Z,0.60
2019-03-08T03:01:15.843Z,0.23
2019-03-08T03:03:44.018Z,0.82
2019-03-08T03:06:12.187Z,0.70
2019-03-08T03:08:40.340Z,0.93
2019-03-08T03:11:08.628Z,0.85
2019-03-08T03:13:36.882Z,0.80
2019-03-08T03:16:05.265Z,0.68
2019-03-08T03:18:33.392Z,0.90
2019-03-08T03:21:01.518Z,0.90
2019-03-08T03:23:30.084Z,1.30
2019-03-08T03:25:58.284Z,1.35
2019-03-08T03:28:26.450Z,0.90
2019-03-08T03:30:55.849Z,1.15
2019-03-08T03:33:24.109Z,0.90
2019-03-08T03:35:52.232Z,1.22
2019-03-08T03:38:20.539Z,1.10
2019-03-08T03:40:48.708Z,1.70
2019-03-08T03:43:16.858Z,1.90
2019-03-08T03:45:45.345Z,1.92
2019-03-08T03:48:13.614Z,2.20
2019-03-08T03:50:41.719Z,1.20
2019-03-08T03:53:09.978Z,1.37
2019-03-08T03:55:38.267Z,0.80
2019-03-08T03:58:06.493Z,1.15
2019-03-08T04:00:34.799Z,1.52
2019-03-08T04:03:03.055Z,1.60
2019-03-08T04:05:31.183Z,0.80
2019-03-08T04:07:59.293Z,0.90
2019-03-08T04:10:27.419Z,1.10
2019-03-08T04:12:55.733Z,1.32
2019-03-08T04:15:24.039Z,2.00
2019-03-08T04:17:52.326Z,2.40
2019-03-08T04:20:29.594Z,1.12
2019-03-08T04:22:57.939Z,1.70
2019-03-08T04:25:26.152Z,1.60
2019-03-08T04:27:54.303Z,1.65
2019-03-08T04:30:22.668Z,1.85
2019-03-08T04:32:50.946Z,2.20
2019-03-08T04:35:19.286Z,2.30
2019-03-08T04:37:47.592Z,1.57
2019-03-08T04:40:15.992Z,2.12
2019-03-08T04:42:44.334Z,1.60
2019-03-08T04:45:13.068Z,1.90
2019-03-08T04:47:41.212Z,0.40
2019-03-08T04:50:10.336Z,1.42
2019-03-08T04:52:38.540Z,1.98
2019-03-08T04:55:08.298Z,2.65
2019-03-08T04:57:36.449Z,2.20
2019-03-08T05:00:05.530Z,2.33
2019-03-08T05:02:33.771Z,2.30
2019-03-08T05:05:02.029Z,2.45
2019-03-08T05:07:30.325Z,2.25
2019-03-08T05:09:58.649Z,2.30
2019-03-08T05:12:26.873Z,2.70
2019-03-08T05:17:42.608Z,2.45
2019-03-08T05:20:11.053Z,2.67
2019-03-08T05:22:39.205Z,2.67
2019-03-08T05:25:07.559Z,3.15
2019-03-08T05:27:35.807Z,2.75
2019-03-08T05:30:04.611Z,2.42
2019-03-08T05:32:32.800Z,2.08
2019-03-08T05:35:01.180Z,2.37
2019-03-08T05:37:29.603Z,1.90
2019-03-08T05:39:57.869Z,1.50
2019-03-08T05:42:26.152Z,1.95
2019-03-08T05:44:54.322Z,1.62
2019-03-08T05:47:22.583Z,1.32
2019-03-08T05:49:50.808Z,2.30
2019-03-08T05:52:18.920Z,1.50
2019-03-08T05:54:47.336Z,2.55
2019-03-08T05:57:15.868Z,2.52
2019-03-08T05:59:45.548Z,2.10
2019-03-08T06:02:14.233Z,2.60
2019-03-08T06:04:42.648Z,2.42
2019-03-08T06:07:11.074Z,2.58
2019-03-08T06:09:39.210Z,1.92
2019-03-08T06:12:07.598Z,2.30
2019-03-08T06:14:35.751Z,2.40
2019-03-08T06:17:03.955Z,1.90
2019-03-08T06:19:32.469Z,2.85
2019-03-08T06:22:00.931Z,1.90
2019-03-08T06:24:29.038Z,2.50
2019-03-08T06:26:57.172Z,2.12
2019-03-08T06:29:25.535Z,2.20
2019-03-08T06:31:53.663Z,2.42
2019-03-08T06:34:21.917Z,2.40
2019-03-08T06:36:50.268Z,1.77
2019-03-08T06:39:18.615Z,2.65
2019-03-08T06:41:46.787Z,2.15
2019-03-08T06:44:15.009Z,1.40
2019-03-08T06:46:43.197Z,1.82
2019-03-08T06:49:11.414Z,2.30
2019-03-08T06:51:39.633Z,1.82
2019-03-08T06:54:07.741Z,1.95
2019-03-08T06:56:36.081Z,2.05
2019-03-08T06:59:23.236Z,2.20
2019-03-08T07:01:51.485Z,2.08
2019-03-08T07:04:19.969Z,1.95
2019-03-08T07:06:48.248Z,2.02
2019-03-08T07:09:17.005Z,2.40
2019-03-08T07:11:45.286Z,2.10
2019-03-08T07:14:13.414Z,2.20
2019-03-08T07:16:41.518Z,2.40
2019-03-08T07:19:09.790Z,1.92
2019-03-08T07:21:42.421Z,2.83
2019-03-08T07:24:29.551Z,2.67
2019-03-08T07:27:16.741Z,2.75
2019-03-08T07:30:16.028Z,2.33
2019-03-08T07:33:06.502Z,2.52
2019-03-08T07:35:53.733Z,2.67
2019-03-08T07:38:41.417Z,2.65
2019-03-08T07:41:25.501Z,2.70
2019-03-08T07:44:06.511Z,2.00
2019-03-08T07:46:59.723Z,2.90
2019-03-08T07:49:48.253Z,3.10
2019-03-08T07:52:22.581Z,1.80
2019-03-08T07:55:09.816Z,1.32
2019-03-08T07:57:45.324Z,1.15
2019-03-08T08:00:36.407Z,1.12
2019-03-08T08:03:11.371Z,1.60
2019-03-08T08:05:58.644Z,0.60
2019-03-08T08:08:51.521Z,1.05
2019-03-08T08:11:28.560Z,1.00
2019-03-08T08:14:21.585Z,0.75
2019-03-08T08:17:08.711Z,1.80
2019-03-08T08:19:56.225Z,2.02
2019-03-08T08:22:43.318Z,2.05
2019-03-08T08:25:42.740Z,1.82
2019-03-08T08:28:38.820Z,1.62
2019-03-08T08:31:29.069Z,2.47
2019-03-08T08:34:16.266Z,1.17
2019-03-08T08:37:02.062Z,1.57
2019-03-08T08:39:50.256Z,1.30
2019-03-08T08:42:37.158Z,1.80
2019-03-08T08:45:30.188Z,1.35
2019-03-08T08:48:05.862Z,1.65
2019-03-08T08:50:44.549Z,1.57
2019-03-08T08:53:31.766Z,1.95
2019-03-08T08:56:17.599Z,2.75
2019-03-08T08:59:04.961Z,1.55
2019-03-08T09:01:50.987Z,1.42
2019-03-08T09:04:38.369Z,1.67
2019-03-08T09:07:34.145Z,2.12
2019-03-08T09:10:30.365Z,2.30
2019-03-08T09:13:17.677Z,1.95
2019-03-08T09:16:10.849Z,1.47
2019-03-08T09:19:13.409Z,2.10
2019-03-08T09:22:00.577Z,1.52
2019-03-08T09:24:47.726Z,2.00
2019-03-08T09:27:34.908Z,1.60
2019-03-08T09:30:34.316Z,2.45
2019-03-08T09:33:20.140Z,2.55
2019-03-08T09:36:07.586Z,1.85
2019-03-08T09:38:50.668Z,2.12
2019-03-08T09:41:31.014Z,3.35
2019-03-08T09:44:10.526Z,1.98
2019-03-08T09:46:56.466Z,2.58
2019-03-08T09:49:43.610Z,2.25
2019-03-08T09:52:16.468Z,2.67
2019-03-08T09:55:03.789Z,2.85
2019-03-08T09:57:52.199Z,2.20
2019-03-08T10:00:38.268Z,2.17
2019-03-08T10:03:25.386Z,2.55
2019-03-08T10:06:12.574Z,3.52
2019-03-08T10:09:11.783Z,4.10
2019-03-08T10:11:58.961Z,3.40
2019-03-08T10:14:46.440Z,2.27
2019-03-08T10:17:21.132Z,1.98
2019-03-08T10:19:58.608Z,2.77
2019-03-08T10:22:44.823Z,2.83
2019-03-08T10:25:37.777Z,2.92
2019-03-08T10:28:39.975Z,2.42
2019-03-08T10:31:27.043Z,1.82
2019-03-08T10:34:08.043Z,1.50
2019-03-08T10:37:04.245Z,2.60
2019-03-08T10:39:51.448Z,2.08
2019-03-08T10:42:37.415Z,1.47
2019-03-08T10:45:16.538Z,2.55
2019-03-08T10:47:56.352Z,1.30
2019-03-08T10:50:43.557Z,2.25
2019-03-08T10:53:18.327Z,0.75
2019-03-08T10:56:00.481Z,2.20
2019-03-08T10:58:47.976Z,2.10
2019-03-08T11:01:35.114Z,2.27
2019-03-08T11:04:10.801Z,2.90
2019-03-08T11:06:58.817Z,2.77
2019-03-08T11:09:44.397Z,1.62
2019-03-08T11:12:28.364Z,2.35
2019-03-08T11:15:24.207Z,2.52
2019-03-08T11:17:52.479Z,1.27
2019-03-08T11:20:43.792Z,2.08
2019-03-08T11:23:29.569Z,1.52
2019-03-08T11:26:20.191Z,1.95
2019-03-08T11:31:52.536Z,2.25
2019-03-08T11:34:30.182Z,2.70
2019-03-08T11:37:17.480Z,2.12
2019-03-08T11:40:04.618Z,1.90
2019-03-08T11:42:51.779Z,1.98
2019-03-08T11:45:33.807Z,1.22
2019-03-08T11:48:24.025Z,1.42
2019-03-08T11:51:11.151Z,1.32
2019-03-08T11:53:56.685Z,1.12
2019-03-08T11:56:43.761Z,1.30
2019-03-08T11:59:30.843Z,0.85
2019-03-08T12:02:10.406Z,1.10
2019-03-08T12:05:15.814Z,1.47
2019-03-08T12:08:03.189Z,1.17
2019-03-08T12:10:44.310Z,2.02
2019-03-08T12:13:28.788Z,1.32
2019-03-08T12:16:19.401Z,1.12
2019-03-08T12:21:51.740Z,1.30
2019-03-08T12:24:38.904Z,2.25
2019-03-08T12:27:20.250Z,1.57
2019-03-08T12:30:22.315Z,1.90
2019-03-08T12:33:08.178Z,1.30
2019-03-08T12:36:13.656Z,1.45
2019-03-08T12:38:49.028Z,0.90
2019-03-08T12:41:33.857Z,1.40
2019-03-08T12:44:20.949Z,1.77
2019-03-08T12:47:08.073Z,1.60
2019-03-08T12:49:52.345Z,1.27
2019-03-08T12:52:36.012Z,1.05
2019-03-08T12:55:22.162Z,1.40
2019-03-08T12:58:09.461Z,1.57
2019-03-08T13:00:45.977Z,1.47
2019-03-08T13:03:48.481Z,1.27
2019-03-08T13:06:35.727Z,1.82
2019-03-08T13:09:15.212Z,1.72
2019-03-08T13:11:43.470Z,1.52
2019-03-08T13:14:11.815Z,1.42
2019-03-08T13:16:40.155Z,2.10
2019-03-08T13:19:08.609Z,1.30
2019-03-08T13:21:36.899Z,1.07
2019-03-08T13:24:05.403Z,1.02
2019-03-08T13:26:33.888Z,1.22
2019-03-08T13:29:20.994Z,1.32
2019-03-08T13:31:49.178Z,1.07
2019-03-08T13:34:17.382Z,1.47
2019-03-08T13:36:45.666Z,1.50
2019-03-08T13:39:14.173Z,2.17
2019-03-08T13:41:42.578Z,2.08
2019-03-08T13:44:10.750Z,1.37
2019-03-08T13:46:38.885Z,1.47
2019-03-08T13:49:07.473Z,0.80
2019-03-08T13:51:36.132Z,1.30
2019-03-08T13:54:04.578Z,2.25
2019-03-08T13:56:33.255Z,1.98
2019-03-08T14:01:36.604Z,1.50
2019-03-08T14:04:04.888Z,0.65
2019-03-08T14:06:33.363Z,1.50
2019-03-08T14:09:04.792Z,1.47
2019-03-08T14:11:33.215Z,1.25
2019-03-08T14:16:50.274Z,0.98
2019-03-08T14:19:18.454Z,1.55
2019-03-08T14:21:46.715Z,0.85
2019-03-08T14:24:14.947Z,0.78
2019-03-08T14:26:43.421Z,1.40
2019-03-08T14:29:11.693Z,0.80
2019-03-08T14:31:53.082Z,0.98
2019-03-08T14:34:21.357Z,1.05
2019-03-08T14:36:49.699Z,1.20
2019-03-08T14:39:17.896Z,1.00
2019-03-08T14:42:05.385Z,1.70
2019-03-08T14:44:56.037Z,0.82
2019-03-08T14:50:00.297Z,1.47
2019-03-08T14:52:29.068Z,1.35
2019-03-08T14:54:57.277Z,1.17
2019-03-08T14:57:27.322Z,1.82
2019-03-08T14:59:55.746Z,1.35
2019-03-08T15:02:24.047Z,1.35
2019-03-08T15:04:52.387Z,0.62
2019-03-08T15:07:20.723Z,1.45
2019-03-08T15:09:49.144Z,1.35
2019-03-08T15:12:17.544Z,1.40
2019-03-08T15:14:45.858Z,1.95
2019-03-08T15:17:16.805Z,1.42
2019-03-08T15:19:44.101Z,1.00
2019-03-08T15:22:12.393Z,1.70
2019-03-08T15:24:40.639Z,1.22
2019-03-08T15:27:08.918Z,1.47
2019-03-08T15:29:37.621Z,1.45
2019-03-08T15:32:06.047Z,1.60
2019-03-08T15:34:34.279Z,1.67
2019-03-08T15:37:02.593Z,1.90
2019-03-08T15:39:30.773Z,0.72
2019-03-08T15:42:02.387Z,1.45
2019-03-08T15:44:29.248Z,1.60
2019-03-08T15:46:59.201Z,1.37
2019-03-08T15:49:30.547Z,1.35
2019-03-08T15:51:59.912Z,1.82
2019-03-08T15:54:27.849Z,1.70
2019-03-08T15:56:56.172Z,1.50
2019-03-08T15:59:24.348Z,1.87
2019-03-08T16:01:52.939Z,1.42
2019-03-08T16:04:21.386Z,1.52
2019-03-08T16:06:49.566Z,1.30
2019-03-08T16:09:17.951Z,1.55
2019-03-08T16:11:46.281Z,1.65
2019-03-08T16:14:14.673Z,1.62
2019-03-08T16:16:42.942Z,1.27
2019-03-08T16:19:11.143Z,0.85
2019-03-08T16:21:39.915Z,1.07
2019-03-08T16:24:08.279Z,1.17
2019-03-08T16:26:36.652Z,1.40
2019-03-08T16:29:11.959Z,5.95
2019-03-08T16:32:00.038Z,3.50
2019-03-08T16:34:28.590Z,0.80
2019-03-08T16:37:09.337Z,1.25
2019-03-08T16:39:59.093Z,0.75
2019-03-08T16:42:46.156Z,1.27
2019-03-08T16:45:40.810Z,1.50
2019-03-08T16:48:40.369Z,1.62
2019-03-08T16:51:39.589Z,1.92
2019-03-08T16:54:24.667Z,3.33
2019-03-08T16:57:19.091Z,3.62
2019-03-08T17:00:06.434Z,2.45
2019-03-08T17:02:53.791Z,2.17
2019-03-08T17:05:41.312Z,1.30
2019-03-08T17:08:46.875Z,1.12
2019-03-08T17:11:34.556Z,1.07
2019-03-08T17:14:22.713Z,1.17
2019-03-08T17:17:12.819Z,1.55
2019-03-08T17:19:53.598Z,1.47
2019-03-08T17:22:38.178Z,2.27
2019-03-08T17:25:29.106Z,1.82
2019-03-08T17:28:11.640Z,2.60
2019-03-08T17:30:59.102Z,3.08
2019-03-08T17:33:48.622Z,2.65
2019-03-08T17:36:42.805Z,1.82
2019-03-08T17:39:19.380Z,1.80
2019-03-08T17:41:55.367Z,1.70
2019-03-08T17:44:43.036Z,2.58
2019-03-08T17:47:30.928Z,1.85
2019-03-08T17:50:30.792Z,1.82
2019-03-08T17:53:18.490Z,2.20
2019-03-08T17:56:13.297Z,3.98
2019-03-08T17:59:01.026Z,2.12
2019-03-08T18:01:44.988Z,2.12
2019-03-08T18:04:32.743Z,2.08
2019-03-08T18:07:20.222Z,4.15
2019-03-08T18:10:14.187Z,2.80
2019-03-08T18:13:02.225Z,1.82
2019-03-08T18:15:59.468Z,2.08
2019-03-08T18:18:47.257Z,1.75
2019-03-08T18:21:34.691Z,1.92
2019-03-08T18:24:37.965Z,1.90
2019-03-08T18:27:28.949Z,1.75
2019-03-08T18:30:29.065Z,1.77
2019-03-08T18:33:11.316Z,1.50
2019-03-08T18:35:59.063Z,1.40
2019-03-08T18:38:55.539Z,1.90
2019-03-08T18:41:33.995Z,8.13
2019-03-08T18:44:21.278Z,8.58
2019-03-08T18:47:12.427Z,8.03
2019-03-08T18:49:51.262Z,6.70
2019-03-08T18:52:45.636Z,5.28
2019-03-08T18:55:32.013Z,4.70
2019-03-08T18:58:32.599Z,4.62
2019-03-08T19:01:19.794Z,4.30
2019-03-08T19:04:05.117Z,3.33
2019-03-08T19:06:55.621Z,4.08
2019-03-08T19:09:32.944Z,3.47
2019-03-08T19:12:31.104Z,4.05
2019-03-08T19:15:27.879Z,4.10
2019-03-08T19:18:15.908Z,3.87
2019-03-08T19:21:03.263Z,4.42
2019-03-08T19:23:40.323Z,3.90
2019-03-08T19:26:43.208Z,4.28
2019-03-08T19:29:21.192Z,3.87
2019-03-08T19:32:00.320Z,3.10
2019-03-08T19:34:47.929Z,3.70
2019-03-08T19:37:27.191Z,3.98
2019-03-08T19:40:15.212Z,3.47
2019-03-08T19:43:03.336Z,3.67
2019-03-08T19:45:57.169Z,2.92
2019-03-08T19:49:02.311Z,3.02
2019-03-08T19:51:56.889Z,3.15
2019-03-08T19:54:41.486Z,3.27
2019-03-08T19:57:29.877Z,3.70
2019-03-08T20:00:30.188Z,3.52
2019-03-08T20:03:08.094Z,3.27
2019-03-08T20:05:59.923Z,3.15
2019-03-08T20:08:40.724Z,3.85
2019-03-08T20:11:38.122Z,3.52
2019-03-08T20:14:35.420Z,2.72
2019-03-08T20:17:22.729Z,2.98
2019-03-08T20:20:17.964Z,3.75
2019-03-08T20:23:00.280Z,2.60
2019-03-08T20:26:04.359Z,2.98
2019-03-08T20:28:47.825Z,2.35
2019-03-08T20:31:35.769Z,2.00
2019-03-08T20:34:21.725Z,2.10
2019-03-08T20:37:09.777Z,3.25
2019-03-08T20:40:00.605Z,2.52
2019-03-08T20:42:48.851Z,2.37
2019-03-08T20:45:23.957Z,2.08
2019-03-08T20:47:53.445Z,2.12
2019-03-08T20:50:24.023Z,2.15
2019-03-08T20:52:53.578Z,1.75
2019-03-08T20:55:22.192Z,2.00
2019-03-08T20:57:52.261Z,1.98
2019-03-08T21:00:22.780Z,1.90
2019-03-08T21:02:52.315Z,2.50
2019-03-08T21:05:22.030Z,2.35
2019-03-08T21:07:51.795Z,2.10
2019-03-08T21:10:21.266Z,2.43
2019-03-08T21:12:50.840Z,1.90
2019-03-08T21:17:56.363Z,2.50
2019-03-08T21:20:45.618Z,3.07
2019-03-08T21:23:16.673Z,5.35
2019-03-08T21:25:46.035Z,3.80
2019-03-08T21:28:15.696Z,2.92
2019-03-08T21:30:44.945Z,2.30
2019-03-08T21:33:14.567Z,2.35
2019-03-08T21:35:44.150Z,2.67
2019-03-08T21:38:13.415Z,3.30
2019-03-08T21:40:42.873Z,8.93
2019-03-08T21:43:14.386Z,2.65
2019-03-08T21:45:44.559Z,2.67
2019-03-08T21:48:13.674Z,1.95
2019-03-08T21:50:43.059Z,1.87
2019-03-08T21:53:11.886Z,2.05
2019-03-08T21:55:41.233Z,1.90
2019-03-08T21:58:10.468Z,1.92
2019-03-08T22:00:39.282Z,1.72
2019-03-08T22:03:08.111Z,1.87
2019-03-08T22:05:38.317Z,1.67
2019-03-08T22:08:16.450Z,2.52
2019-03-08T22:10:52.207Z,2.27
2019-03-08T22:13:21.163Z,2.20
2019-03-08T22:15:49.624Z,2.25
2019-03-08T22:18:18.412Z,2.37
2019-03-08T22:20:47.192Z,1.17
2019-03-08T22:23:15.635Z,2.55
2019-03-08T22:25:44.021Z,2.55
2019-03-08T22:28:12.878Z,2.42
2019-03-08T22:30:41.842Z,2.60
2019-03-08T22:33:10.583Z,2.92
2019-03-08T22:35:39.223Z,2.27
2019-03-08T22:38:07.599Z,2.30
2019-03-08T22:40:36.005Z,2.42
2019-03-08T22:43:04.285Z,2.42
2019-03-08T22:45:32.578Z,1.60
2019-03-08T22:48:00.945Z,1.95
2019-03-08T22:50:29.332Z,1.92
2019-03-08T22:52:57.644Z,1.90
2019-03-08T22:55:25.968Z,2.15
2019-03-08T22:57:54.210Z,2.05
2019-03-08T23:01:01.215Z,1.77
2019-03-08T23:03:29.903Z,1.92
2019-03-08T23:05:58.063Z,1.60
2019-03-08T23:08:26.225Z,1.72
2019-03-08T23:10:54.342Z,2.25
2019-03-08T23:13:22.695Z,2.33
2019-03-08T23:15:50.871Z,2.17
2019-03-08T23:18:19.276Z,1.92
2019-03-08T23:20:47.520Z,2.33
2019-03-08T23:23:15.997Z,2.10
2019-03-08T23:25:44.230Z,1.98
2019-03-08T23:28:43.594Z,2.37
2019-03-08T23:31:28.505Z,1.85
2019-03-08T23:33:56.721Z,1.22
2019-03-08T23:36:25.006Z,1.92
2019-03-08T23:38:53.325Z,2.05
2019-03-08T23:41:21.745Z,1.85
2019-03-08T23:43:49.927Z,1.15
2019-03-08T23:46:18.183Z,2.12
2019-03-08T23:48:46.321Z,2.12
2019-03-08T23:51:14.554Z,1.47
2019-03-08T23:53:42.950Z,1.70
2019-03-08T23:56:11.531Z,2.17
2019-03-08T23:58:39.679Z,1.65
